createdAt,value
2018-08-12T00:01:44.780Z,46.85
2018-08-12T00:04:13.026Z,47.35
2018-08-12T00:06:41.155Z,46.95
2018-08-12T00:09:10.204Z,46.92
2018-08-12T00:11:38.351Z,47.34
2018-08-12T00:14:07.067Z,47.39
2018-08-12T00:16:35.681Z,47.44
2018-08-12T00:19:04.023Z,47.43
2018-08-12T00:21:32.606Z,47.61
2018-08-12T00:24:00.811Z,47.08
2018-08-12T00:26:29.302Z,47.26
2018-08-12T00:28:57.535Z,47.22
2018-08-12T00:31:25.811Z,47.45
2018-08-12T00:33:53.904Z,47.76
2018-08-12T00:36:22.095Z,47.40
2018-08-12T00:38:50.234Z,47.58
2018-08-12T00:41:18.338Z,48.31
2018-08-12T00:43:46.556Z,48.40
2018-08-12T00:46:14.739Z,48.30
2018-08-12T00:48:42.854Z,48.91
2018-08-12T00:51:11.048Z,48.38
2018-08-12T00:53:39.199Z,49.52
2018-08-12T00:56:07.330Z,49.53
2018-08-12T00:58:35.815Z,49.31
2018-08-12T01:01:03.964Z,49.22
2018-08-12T01:03:32.512Z,49.89
2018-08-12T01:06:00.652Z,49.86
2018-08-12T01:08:28.926Z,49.18
2018-08-12T01:10:57.029Z,50.21
2018-08-12T01:13:25.294Z,49.96
2018-08-12T01:15:53.553Z,49.96
2018-08-12T01:18:21.715Z,50.51
2018-08-12T01:20:49.927Z,50.12
2018-08-12T01:23:18.063Z,50.74
2018-08-12T01:25:46.326Z,50.86
2018-08-12T01:28:14.435Z,50.75
2018-08-12T01:30:42.620Z,50.81
2018-08-12T01:33:10.735Z,51.24
2018-08-12T01:35:38.851Z,51.01
2018-08-12T01:38:06.967Z,51.20
2018-08-12T01:40:35.254Z,50.75
2018-08-12T01:43:03.593Z,51.14
2018-08-12T01:45:31.758Z,52.00
2018-08-12T01:47:59.859Z,51.99
2018-08-12T01:50:28.007Z,51.90
2018-08-12T01:52:56.166Z,51.92
2018-08-12T01:55:24.283Z,52.31
2018-08-12T01:57:52.414Z,52.28
2018-08-12T02:00:21.867Z,51.97
2018-08-12T02:02:50.524Z,51.82
2018-08-12T02:05:19.107Z,52.81
2018-08-12T02:07:47.792Z,52.84
2018-08-12T02:10:15.902Z,52.97
2018-08-12T02:12:44.006Z,52.97
2018-08-12T02:15:12.527Z,53.12
2018-08-12T02:17:41.200Z,52.79
2018-08-12T02:20:10.181Z,52.85
2018-08-12T02:22:39.174Z,53.23
2018-08-12T02:25:08.143Z,53.16
2018-08-12T02:27:36.413Z,53.70
2018-08-12T02:30:05.230Z,53.46
2018-08-12T02:32:33.497Z,53.53
2018-08-12T02:35:01.629Z,53.82
2018-08-12T02:37:30.190Z,53.85
2018-08-12T02:39:58.519Z,54.00
2018-08-12T02:42:26.745Z,54.32
2018-08-12T02:44:55.109Z,53.70
2018-08-12T02:47:23.219Z,54.36
2018-08-12T02:49:51.690Z,54.60
2018-08-12T02:52:20.002Z,54.12
2018-08-12T02:54:48.111Z,54.61
2018-08-12T02:57:16.294Z,54.53
2018-08-12T02:59:44.421Z,54.49
2018-08-12T03:02:12.759Z,54.54
2018-08-12T03:04:41.276Z,54.24
2018-08-12T03:07:09.434Z,54.94
2018-08-12T03:09:37.591Z,55.35
2018-08-12T03:12:06.103Z,54.85
2018-08-12T03:14:34.669Z,54.46
2018-08-12T03:17:02.818Z,55.13
2018-08-12T03:19:30.999Z,55.09
2018-08-12T03:21:59.115Z,54.88
2018-08-12T03:24:27.263Z,55.77
2018-08-12T03:26:55.786Z,55.93
2018-08-12T03:29:24.028Z,56.00
2018-08-12T03:31:52.430Z,56.05
2018-08-12T03:34:20.476Z,56.10
2018-08-12T03:36:48.591Z,55.62
2018-08-12T03:39:16.804Z,56.14
2018-08-12T03:41:44.958Z,56.65
2018-08-12T03:44:13.090Z,55.86
2018-08-12T03:46:41.336Z,56.41
2018-08-12T03:49:09.552Z,56.12
2018-08-12T03:51:37.813Z,56.59
2018-08-12T03:54:06.170Z,56.62
2018-08-12T03:56:34.486Z,56.39
2018-08-12T03:59:02.621Z,56.59
2018-08-12T04:01:30.855Z,56.45
2018-08-12T04:03:58.994Z,56.53
2018-08-12T04:06:27.116Z,57.01
2018-08-12T04:08:55.437Z,57.12
2018-08-12T04:11:23.611Z,57.07
2018-08-12T04:13:51.760Z,56.84
2018-08-12T04:16:19.887Z,57.10
2018-08-12T04:18:48.041Z,57.24
2018-08-12T04:21:16.354Z,56.81
2018-08-12T04:23:44.470Z,57.30
2018-08-12T04:26:12.614Z,57.02
2018-08-12T04:28:40.752Z,57.97
2018-08-12T04:31:08.870Z,57.70
2018-08-12T04:33:37.425Z,57.22
2018-08-12T04:36:05.646Z,57.26
2018-08-12T04:38:33.787Z,57.62
2018-08-12T04:41:01.899Z,57.56
2018-08-12T04:43:30.002Z,58.09
2018-08-12T04:45:58.199Z,57.53
2018-08-12T04:48:26.307Z,58.21
2018-08-12T04:50:54.480Z,58.09
2018-08-12T04:53:22.626Z,57.82
2018-08-12T04:55:50.791Z,57.93
2018-08-12T04:58:19.194Z,58.56
2018-08-12T05:00:47.337Z,58.05
2018-08-12T05:03:15.430Z,57.96
2018-08-12T05:05:43.622Z,59.07
2018-08-12T05:08:11.834Z,58.68
2018-08-12T05:10:40.184Z,58.95
2018-08-12T05:13:08.520Z,58.87
2018-08-12T05:15:36.638Z,59.23
2018-08-12T05:18:04.852Z,59.55
2018-08-12T05:20:33.290Z,59.60
2018-08-12T05:23:01.579Z,59.44
2018-08-12T05:25:29.687Z,58.77
2018-08-12T05:27:57.870Z,59.30
2018-08-12T05:30:26.094Z,59.09
2018-08-12T05:32:54.214Z,59.65
2018-08-12T05:35:22.568Z,59.60
2018-08-12T05:37:50.800Z,59.33
2018-08-12T05:40:18.906Z,58.96
2018-08-12T05:42:47.044Z,59.40
2018-08-12T05:45:15.182Z,59.67
2018-08-12T05:47:43.429Z,58.74
2018-08-12T05:50:11.674Z,58.60
2018-08-12T05:52:39.819Z,58.93
2018-08-12T05:55:08.655Z,58.03
2018-08-12T05:57:36.887Z,58.12
2018-08-12T06:00:07.027Z,58.39
2018-08-12T06:02:35.419Z,58.51
2018-08-12T06:05:03.537Z,58.47
2018-08-12T06:07:31.728Z,58.20
2018-08-12T06:09:59.954Z,57.65
2018-08-12T06:12:28.199Z,57.95
2018-08-12T06:14:56.431Z,57.94
2018-08-12T06:17:24.774Z,57.50
2018-08-12T06:19:52.864Z,57.42
2018-08-12T06:22:20.994Z,57.27
2018-08-12T06:24:49.165Z,57.70
2018-08-12T06:27:17.841Z,57.26
2018-08-12T06:29:46.083Z,57.62
2018-08-12T06:32:14.448Z,56.94
2018-08-12T06:34:42.784Z,57.41
2018-08-12T06:37:11.260Z,57.35
2018-08-12T06:39:39.458Z,56.46
2018-08-12T06:42:07.811Z,56.68
2018-08-12T06:44:36.148Z,56.14
2018-08-12T06:47:04.294Z,56.12
2018-08-12T06:49:32.425Z,55.61
2018-08-12T06:52:00.585Z,55.63
2018-08-12T06:54:28.777Z,56.19
2018-08-12T06:56:56.884Z,55.67
2018-08-12T06:59:24.992Z,54.94
2018-08-12T07:01:53.100Z,55.22
2018-08-12T07:04:21.326Z,54.92
2018-08-12T07:06:49.811Z,54.78
2018-08-12T07:09:17.959Z,55.09
2018-08-12T07:11:46.091Z,54.82
2018-08-12T07:14:14.328Z,54.97
2018-08-12T07:16:42.574Z,53.91
2018-08-12T07:19:11.303Z,54.28
2018-08-12T07:21:39.450Z,54.08
2018-08-12T07:24:07.628Z,53.75
2018-08-12T07:26:35.758Z,53.43
2018-08-12T07:29:03.907Z,52.84
2018-08-12T07:31:32.742Z,52.72
2018-08-12T07:34:01.042Z,52.67
2018-08-12T07:36:29.260Z,52.18
2018-08-12T07:38:57.805Z,52.53
2018-08-12T07:41:26.069Z,52.08
2018-08-12T07:43:54.198Z,52.30
2018-08-12T07:46:22.391Z,51.87
2018-08-12T07:48:50.565Z,51.14
2018-08-12T07:51:19.029Z,51.52
2018-08-12T07:53:47.154Z,50.88
2018-08-12T07:56:15.427Z,51.19
2018-08-12T07:58:43.993Z,50.62
2018-08-12T08:01:12.375Z,51.18
2018-08-12T08:03:40.610Z,51.23
2018-08-12T08:06:08.745Z,50.87
2018-08-12T08:08:36.831Z,50.15
2018-08-12T08:11:05.174Z,50.68
2018-08-12T08:13:33.563Z,50.09
2018-08-12T08:16:01.706Z,49.53
2018-08-12T08:18:29.807Z,49.95
2018-08-12T08:20:57.969Z,50.00
2018-08-12T08:23:26.134Z,49.90
2018-08-12T08:25:54.397Z,49.95
2018-08-12T08:28:22.438Z,49.09
2018-08-12T08:30:50.562Z,49.16
2018-08-12T08:33:18.816Z,49.27
2018-08-12T08:35:46.919Z,49.36
2018-08-12T08:38:15.185Z,49.40
2018-08-12T08:40:43.474Z,49.26
2018-08-12T08:43:11.594Z,48.74
2018-08-12T08:45:39.854Z,47.96
2018-08-12T08:48:08.075Z,48.60
2018-08-12T08:50:36.248Z,48.57
2018-08-12T08:53:04.383Z,47.83
2018-08-12T08:55:32.567Z,47.72
2018-08-12T08:58:00.627Z,48.38
2018-08-12T09:00:28.822Z,48.29
2018-08-12T09:02:57.023Z,47.73
2018-08-12T09:05:25.198Z,48.21
2018-08-12T09:07:53.501Z,48.23
2018-08-12T09:10:21.778Z,47.86
2018-08-12T09:12:49.962Z,47.34
2018-08-12T09:15:19.256Z,47.48
2018-08-12T09:17:48.025Z,46.94
2018-08-12T09:20:17.498Z,46.88
2018-08-12T09:22:45.662Z,47.55
2018-08-12T09:25:18.963Z,46.68
2018-08-12T09:27:47.082Z,46.61
2018-08-12T09:30:17.406Z,46.75
2018-08-12T09:32:46.270Z,46.35
2018-08-12T09:35:14.697Z,46.66
2018-08-12T09:37:43.048Z,46.55
2018-08-12T09:40:14.160Z,46.23
2018-08-12T09:42:43.379Z,46.76
2018-08-12T09:45:13.745Z,46.31
2018-08-12T09:47:41.865Z,45.99
2018-08-12T09:50:10.966Z,45.70
2018-08-12T09:52:39.442Z,46.33
2018-08-12T09:55:08.766Z,45.87
2018-08-12T09:57:36.949Z,45.51
2018-08-12T10:00:08.874Z,46.40
2018-08-12T10:02:37.239Z,45.81
2018-08-12T10:05:06.109Z,45.40
2018-08-12T10:07:34.348Z,45.91
2018-08-12T10:10:03.400Z,45.88
2018-08-12T10:12:31.502Z,44.82
2018-08-12T10:14:59.627Z,45.25
2018-08-12T10:17:31.701Z,45.53
2018-08-12T10:19:59.843Z,45.05
2018-08-12T10:22:27.986Z,44.58
2018-08-12T10:24:56.111Z,44.43
2018-08-12T10:27:24.541Z,44.36
2018-08-12T10:29:52.695Z,44.24
2018-08-12T10:32:20.921Z,44.20
2018-08-12T10:34:49.170Z,44.13
2018-08-12T10:37:17.283Z,44.83
2018-08-12T10:39:45.595Z,44.11
2018-08-12T10:42:13.822Z,44.78
2018-08-12T10:44:42.092Z,43.94
2018-08-12T10:47:10.218Z,43.93
2018-08-12T10:49:38.377Z,43.31
2018-08-12T10:52:06.552Z,43.52
2018-08-12T10:54:34.768Z,43.35
2018-08-12T10:57:03.006Z,44.18
2018-08-12T10:59:31.217Z,43.48
2018-08-12T11:01:59.290Z,43.31
2018-08-12T11:04:27.611Z,44.07
2018-08-12T11:06:55.719Z,44.18
2018-08-12T11:09:23.978Z,43.41
2018-08-12T11:11:52.119Z,44.06
2018-08-12T11:14:20.394Z,43.23
2018-08-12T11:16:48.670Z,42.97
2018-08-12T11:19:16.793Z,43.00
2018-08-12T11:21:44.960Z,43.37
2018-08-12T11:24:13.162Z,42.67
2018-08-12T11:26:41.281Z,43.31
2018-08-12T11:29:09.570Z,42.47
2018-08-12T11:31:37.674Z,42.63
2018-08-12T11:34:05.843Z,42.35
2018-08-12T11:36:34.827Z,42.15
2018-08-12T11:39:02.966Z,42.20
2018-08-12T11:41:31.086Z,42.45
2018-08-12T11:43:59.330Z,42.64
2018-08-12T11:46:27.478Z,42.32
2018-08-12T11:48:55.627Z,42.08
2018-08-12T11:51:23.947Z,40.86
2018-08-12T11:53:52.073Z,41.57
2018-08-12T11:56:20.226Z,40.86
2018-08-12T11:58:48.374Z,41.78
2018-08-12T12:01:16.523Z,41.61
2018-08-12T12:03:44.652Z,41.15
2018-08-12T12:06:13.201Z,41.27
2018-08-12T12:08:41.328Z,41.68
2018-08-12T12:11:09.536Z,41.61
2018-08-12T12:13:37.638Z,41.92
2018-08-12T12:16:05.933Z,41.80
2018-08-12T12:18:34.073Z,41.04
2018-08-12T12:21:02.530Z,41.44
2018-08-12T12:23:30.682Z,40.82
2018-08-12T12:25:58.828Z,41.08
2018-08-12T12:28:27.066Z,41.62
2018-08-12T12:30:55.215Z,41.21
2018-08-12T12:33:23.363Z,41.60
2018-08-12T12:35:51.498Z,40.86
2018-08-12T12:38:19.620Z,40.83
2018-08-12T12:40:47.770Z,41.23
2018-08-12T12:43:15.918Z,41.36
2018-08-12T12:45:44.461Z,41.36
2018-08-12T12:48:12.842Z,41.51
2018-08-12T12:50:41.022Z,40.74
2018-08-12T12:53:09.136Z,40.71
2018-08-12T12:55:37.260Z,41.69
2018-08-12T12:58:05.432Z,41.66
2018-08-12T13:00:33.799Z,41.48
2018-08-12T13:03:02.075Z,40.98
2018-08-12T13:05:30.220Z,41.96
2018-08-12T13:07:58.384Z,42.04
2018-08-12T13:10:26.594Z,41.28
2018-08-12T13:12:54.752Z,42.05
2018-08-12T13:15:22.886Z,41.29
2018-08-12T13:17:51.030Z,40.83
2018-08-12T13:20:20.405Z,41.27
2018-08-12T13:22:49.202Z,41.02
2018-08-12T13:25:18.914Z,41.11
2018-08-12T13:27:47.294Z,40.58
2018-08-12T13:30:16.701Z,40.91
2018-08-12T13:32:46.024Z,41.47
2018-08-12T13:35:14.306Z,40.66
2018-08-12T13:37:42.531Z,41.69
2018-08-12T13:40:12.509Z,41.63
2018-08-12T13:42:41.399Z,41.27
2018-08-12T13:45:10.812Z,41.63
2018-08-12T13:47:39.418Z,41.26
2018-08-12T13:50:10.153Z,40.76
2018-08-12T13:52:38.277Z,41.00
2018-08-12T13:55:06.734Z,40.57
2018-08-12T13:57:35.345Z,41.08
2018-08-12T14:00:03.506Z,40.64
2018-08-12T14:02:31.659Z,40.92
2018-08-12T14:04:59.777Z,40.62
2018-08-12T14:07:27.963Z,40.07
2018-08-12T14:09:56.271Z,40.03
2018-08-12T14:12:24.395Z,39.85
2018-08-12T14:14:52.539Z,40.14
2018-08-12T14:17:20.765Z,39.80
2018-08-12T14:19:48.965Z,39.73
2018-08-12T14:22:17.279Z,40.48
2018-08-12T14:24:45.465Z,39.50
2018-08-12T14:27:13.746Z,39.48
2018-08-12T14:29:42.050Z,39.43
2018-08-12T14:32:10.302Z,39.31
2018-08-12T14:34:38.866Z,39.41
2018-08-12T14:37:07.094Z,39.93
2018-08-12T14:39:35.233Z,39.86
2018-08-12T14:42:03.369Z,38.85
2018-08-12T14:44:31.570Z,39.73
2018-08-12T14:46:59.819Z,39.42
2018-08-12T14:49:27.935Z,39.24
2018-08-12T14:51:56.181Z,38.13
2018-08-12T14:54:24.343Z,38.57
2018-08-12T14:56:52.475Z,38.35
2018-08-12T14:59:20.670Z,38.28
2018-08-12T15:01:48.801Z,39.18
2018-08-12T15:04:17.382Z,38.30
2018-08-12T15:06:46.339Z,39.16
2018-08-12T15:09:14.474Z,38.63
2018-08-12T15:11:42.778Z,38.33
2018-08-12T15:14:10.913Z,38.86
2018-08-12T15:16:39.318Z,37.99
2018-08-12T15:19:07.430Z,37.96
2018-08-12T15:21:35.576Z,38.83
2018-08-12T15:24:03.739Z,38.77
2018-08-12T15:26:31.897Z,37.88
2018-08-12T15:29:00.114Z,38.19
2018-08-12T15:31:28.333Z,37.93
2018-08-12T15:33:56.497Z,38.39
2018-08-12T15:36:24.812Z,38.55
2018-08-12T15:38:52.942Z,37.77
2018-08-12T15:41:21.192Z,37.80
2018-08-12T15:43:49.342Z,38.30
2018-08-12T15:46:17.498Z,37.55
2018-08-12T15:48:45.634Z,38.32
2018-08-12T15:51:13.832Z,37.59
2018-08-12T15:53:41.951Z,38.21
2018-08-12T15:56:10.194Z,38.15
2018-08-12T15:58:38.376Z,38.06
2018-08-12T16:01:06.754Z,37.90
2018-08-12T16:03:34.997Z,37.44
2018-08-12T16:06:03.303Z,37.44
2018-08-12T16:08:31.454Z,37.29
2018-08-12T16:10:59.592Z,37.23
2018-08-12T16:13:27.830Z,37.62
2018-08-12T16:15:56.039Z,37.36
2018-08-12T16:18:24.499Z,38.16
2018-08-12T16:20:52.643Z,37.23
2018-08-12T16:23:20.900Z,38.23
2018-08-12T16:25:49.038Z,37.96
2018-08-12T16:28:17.178Z,37.95
2018-08-12T16:30:45.599Z,37.11
2018-08-12T16:33:13.760Z,37.53
2018-08-12T16:35:42.463Z,36.55
2018-08-12T16:38:10.651Z,37.07
2018-08-12T16:40:38.895Z,36.14
2018-08-12T16:43:07.362Z,36.97
2018-08-12T16:45:35.554Z,36.98
2018-08-12T16:48:03.705Z,36.20
2018-08-12T16:50:32.120Z,36.13
2018-08-12T16:53:00.240Z,36.17
2018-08-12T16:55:28.638Z,36.55
2018-08-12T16:57:56.870Z,37.16
2018-08-12T17:00:26.794Z,36.91
2018-08-12T17:02:54.962Z,37.43
2018-08-12T17:05:23.791Z,37.14
2018-08-12T17:07:52.160Z,36.90
2018-08-12T17:10:20.818Z,36.84
2018-08-12T17:12:49.037Z,36.41
2018-08-12T17:15:19.790Z,36.34
2018-08-12T17:17:48.623Z,36.62
2018-08-12T17:20:17.958Z,36.51
2018-08-12T17:22:46.738Z,36.69
2018-08-12T17:25:15.035Z,37.22
2018-08-12T17:27:43.420Z,37.15
2018-08-12T17:30:13.293Z,36.32
2018-08-12T17:32:41.464Z,36.40
2018-08-12T17:35:10.283Z,36.54
2018-08-12T17:37:38.991Z,36.50
2018-08-12T17:40:09.166Z,36.20
2018-08-12T17:42:37.450Z,36.25
2018-08-12T17:45:06.972Z,36.48
2018-08-12T17:47:35.143Z,36.96
2018-08-12T17:50:03.370Z,36.28
2018-08-12T17:52:31.607Z,37.10
2018-08-12T17:54:59.703Z,36.30
2018-08-12T17:57:27.958Z,37.00
2018-08-12T17:59:56.153Z,37.02
2018-08-12T18:02:24.556Z,36.30
2018-08-12T18:04:52.795Z,36.67
2018-08-12T18:07:21.027Z,36.14
2018-08-12T18:09:49.327Z,36.18
2018-08-12T18:12:17.664Z,36.28
2018-08-12T18:14:45.778Z,37.04
2018-08-12T18:17:14.091Z,36.43
2018-08-12T18:19:42.235Z,36.46
2018-08-12T18:22:10.554Z,36.59
2018-08-12T18:24:38.857Z,36.48
2018-08-12T18:27:07.104Z,36.54
2018-08-12T18:29:35.363Z,36.59
2018-08-12T18:32:04.068Z,37.51
2018-08-12T18:34:32.462Z,37.53
2018-08-12T18:37:03.410Z,37.76
2018-08-12T18:39:31.566Z,37.99
2018-08-12T18:41:59.800Z,38.50
2018-08-12T18:44:27.914Z,37.97
2018-08-12T18:46:56.092Z,37.82
2018-08-12T18:49:24.455Z,38.08
2018-08-12T18:51:52.714Z,37.86
2018-08-12T18:54:21.276Z,37.55
2018-08-12T18:56:49.402Z,37.58
2018-08-12T18:59:17.863Z,38.05
2018-08-12T19:01:46.079Z,38.16
2018-08-12T19:04:14.246Z,38.10
2018-08-12T19:06:42.486Z,37.90
2018-08-12T19:09:11.538Z,37.31
2018-08-12T19:11:39.780Z,37.03
2018-08-12T19:14:08.295Z,37.09
2018-08-12T19:16:36.630Z,37.71
2018-08-12T19:19:05.127Z,37.14
2018-08-12T19:21:33.342Z,37.16
2018-08-12T19:24:01.687Z,37.50
2018-08-12T19:26:30.235Z,37.74
2018-08-12T19:28:58.547Z,37.91
2018-08-12T19:31:27.085Z,37.13
2018-08-12T19:33:55.398Z,36.89
2018-08-12T19:36:23.842Z,36.91
2018-08-12T19:38:52.067Z,37.60
2018-08-12T19:41:20.254Z,37.45
2018-08-12T19:43:48.497Z,36.99
2018-08-12T19:46:16.619Z,37.44
2018-08-12T19:48:45.047Z,37.09
2018-08-12T19:51:14.370Z,38.00
2018-08-12T19:53:43.182Z,37.49
2018-08-12T19:56:12.060Z,38.04
2018-08-12T19:58:40.375Z,37.45
2018-08-12T20:01:08.626Z,37.57
2018-08-12T20:03:36.750Z,37.32
2018-08-12T20:06:05.262Z,38.35
2018-08-12T20:08:33.407Z,37.87
2018-08-12T20:11:02.594Z,37.78
2018-08-12T20:13:30.818Z,38.28
2018-08-12T20:15:59.223Z,38.55
2018-08-12T20:18:27.495Z,38.40
2018-08-12T20:20:55.702Z,38.43
2018-08-12T20:23:24.687Z,37.62
2018-08-12T20:25:53.040Z,37.87
2018-08-12T20:28:21.497Z,38.70
2018-08-12T20:30:49.615Z,38.40
2018-08-12T20:33:17.853Z,37.88
2018-08-12T20:35:45.942Z,38.24
2018-08-12T20:38:14.185Z,38.89
2018-08-12T20:40:42.499Z,38.96
2018-08-12T20:43:10.606Z,38.71
2018-08-12T20:45:38.764Z,38.98
2018-08-12T20:48:06.975Z,38.40
2018-08-12T20:50:35.095Z,39.07
2018-08-12T20:53:03.303Z,39.14
2018-08-12T20:55:31.402Z,38.78
2018-08-12T20:57:59.967Z,39.29
2018-08-12T21:00:28.133Z,39.39
2018-08-12T21:02:56.379Z,39.52
2018-08-12T21:05:25.129Z,39.55
2018-08-12T21:07:53.222Z,39.53
2018-08-12T21:10:21.498Z,39.81
2018-08-12T21:12:49.684Z,40.05
2018-08-12T21:15:17.787Z,39.16
2018-08-12T21:17:46.324Z,39.92
2018-08-12T21:20:14.447Z,39.16
2018-08-12T21:22:42.584Z,39.60
2018-08-12T21:25:10.808Z,40.32
2018-08-12T21:27:39.030Z,39.47
2018-08-12T21:30:07.550Z,39.52
2018-08-12T21:32:35.825Z,39.47
2018-08-12T21:35:03.976Z,39.64
2018-08-12T21:37:32.158Z,40.35
2018-08-12T21:40:24.727Z,39.74
2018-08-12T21:42:53.022Z,40.53
2018-08-12T21:45:21.210Z,40.32
2018-08-12T21:47:49.328Z,40.21
2018-08-12T21:50:17.458Z,40.17
2018-08-12T21:52:46.195Z,40.12
2018-08-12T21:55:14.511Z,40.10
2018-08-12T21:57:42.807Z,40.79
2018-08-12T22:00:13.735Z,41.05
2018-08-12T22:02:46.520Z,41.03
2018-08-12T22:05:15.012Z,40.39
2018-08-12T22:07:43.198Z,41.17
2018-08-12T22:10:11.487Z,40.57
2018-08-12T22:12:39.731Z,40.47
2018-08-12T22:15:08.543Z,40.57
2018-08-12T22:17:37.049Z,41.25
2018-08-12T22:20:05.913Z,41.30
2018-08-12T22:22:34.569Z,40.84
2018-08-12T22:25:02.691Z,40.67
2018-08-12T22:27:30.987Z,40.87
2018-08-12T22:29:59.247Z,40.88
2018-08-12T22:32:27.614Z,40.82
2018-08-12T22:34:58.687Z,41.86
2018-08-12T22:37:26.967Z,40.95
2018-08-12T22:39:55.102Z,41.01
2018-08-12T22:42:23.223Z,41.14
2018-08-12T22:44:52.347Z,41.85
2018-08-12T22:47:20.543Z,42.01
2018-08-12T22:49:48.752Z,41.27
2018-08-12T22:52:16.939Z,41.23
2018-08-12T22:54:45.051Z,40.85
2018-08-12T22:57:13.454Z,41.29
2018-08-12T22:59:41.719Z,41.48
2018-08-12T23:02:10.162Z,41.03
2018-08-12T23:04:38.286Z,41.76
2018-08-12T23:07:06.482Z,41.18
2018-08-12T23:09:34.779Z,41.77
2018-08-12T23:12:02.923Z,41.95
2018-08-12T23:14:31.040Z,41.23
2018-08-12T23:17:00.918Z,41.12
2018-08-12T23:19:29.303Z,42.00
2018-08-12T23:21:57.698Z,41.14
2018-08-12T23:24:25.794Z,41.30
2018-08-12T23:26:54.100Z,41.81
2018-08-12T23:29:22.258Z,41.41
2018-08-12T23:31:50.522Z,41.94
2018-08-12T23:34:19.012Z,42.09
2018-08-12T23:36:47.100Z,41.22
2018-08-12T23:39:15.490Z,41.41
2018-08-12T23:41:43.660Z,42.13
2018-08-12T23:44:11.810Z,42.04
2018-08-12T23:46:40.010Z,42.16
2018-08-12T23:49:08.138Z,41.88
2018-08-12T23:51:36.400Z,42.12
2018-08-12T23:54:04.654Z,41.86
2018-08-12T23:56:32.751Z,42.24
2018-08-12T23:59:00.841Z,41.49
